Time;durP1;ratioP1;P1;durP2;ratioP2;P2;SDS_P1;SDS_P2;PMS_P1;PMS_P2;Temp;Humidity;BMP_temperature;BMP_pressure;BME280_temperature;BME280_humidity;BME280_pressure;Samples;Min_cycle;Max_cycle;Signal;HPM_P1;HPM_P2
2023/02/21 02:15:14;;;;;;;52.05;29.60;;;8.90;94.60;;;;;;5031798;28;20375;-76
2023/02/21 02:17:59;;;;;;;52.53;30.70;;;8.90;94.50;;;;;;5046277;28;20763;-72
2023/02/21 02:20:55;;;;;;;50.30;30.55;;;8.80;95.80;;;;;;5051898;28;20375;-73
2023/02/21 02:23:33;;;;;;;50.33;30.60;;;8.90;94.00;;;;;;5045084;28;20445;-75
2023/02/21 02:26:29;;;;;;;52.72;31.27;;;8.90;94.30;;;;;;5030340;28;20395;-75
2023/02/21 02:29:19;;;;;;;54.20;31.63;;;8.90;94.70;;;;;;5031127;28;20403;-74
2023/02/21 02:32:07;;;;;;;50.35;29.95;;;8.80;96.00;;;;;;5030838;28;20388;-74
2023/02/21 02:34:54;;;;;;;52.80;31.05;;;8.90;94.60;;;;;;5031003;28;20407;-75
2023/02/21 02:37:51;;;;;;;50.45;30.35;;;9.00;93.80;;;;;;5030783;28;20732;-75
2023/02/21 02:40:44;;;;;;;51.85;29.33;;;9.00;91.80;;;;;;5024484;28;20813;-75
2023/02/21 02:43:25;;;;;;;50.15;30.40;;;9.00;91.10;;;;;;5043966;28;20392;-74
2023/02/21 02:46:09;;;;;;;55.47;32.17;;;8.90;93.40;;;;;;5030782;28;20756;-74
2023/02/21 02:48:54;;;;;;;55.28;32.15;;;8.90;94.20;;;;;;5032103;28;20399;-74
2023/02/21 02:51:20;;;;;;;57.10;33.00;;;8.90;95.50;;;;;;5030911;28;20462;-74
2023/02/21 02:53:45;;;;;;;55.63;32.50;;;9.00;94.00;;;;;;5030626;28;20477;-73
2023/02/21 02:56:15;;;;;;;53.07;31.77;;;9.00;91.60;;;;;;5030626;28;20914;-74
2023/02/21 02:58:54;;;;;;;58.42;33.05;;;9.00;90.60;;;;;;5031168;28;20387;-75
2023/02/21 03:01:43;;;;;;;63.22;32.65;;;8.90;92.30;;;;;;5030824;28;20387;-75
2023/02/21 03:04:15;;;;;;;60.42;33.65;;;9.10;91.60;;;;;;5030699;28;20756;-75
2023/02/21 03:07:10;;;;;;;63.20;35.15;;;9.00;92.00;;;;;;5030468;28;20386;-74
2023/02/21 03:09:57;;;;;;;67.75;36.05;;;9.10;91.70;;;;;;5029167;28;20402;-74
2023/02/21 03:13:13;;;;;;;70.77;36.03;;;9.10;91.60;;;;;;5030181;28;20506;-73
2023/02/21 03:15:56;;;;;;;71.20;38.55;;;9.00;92.90;;;;;;4996574;28;20735;-73
2023/02/21 03:18:32;;;;;;;77.30;38.58;;;9.00;92.40;;;;;;5030461;28;20470;-74
2023/02/21 03:21:01;;;;;;;75.65;38.75;;;9.00;91.70;;;;;;5030141;28;20391;-73
2023/02/21 03:23:30;;;;;;;80.35;39.58;;;9.00;92.70;;;;;;5030733;28;20491;-74
2023/02/21 03:26:00;;;;;;;79.47;38.95;;;9.00;92.40;;;;;;5030427;28;20439;-75
2023/02/21 03:28:27;;;;;;;81.55;40.35;;;9.10;90.60;;;;;;5030628;28;20398;-75
2023/02/21 03:30:55;;;;;;;87.25;41.67;;;9.00;92.50;;;;;;5029935;28;20900;-74
2023/02/21 03:33:21;;;;;;;89.13;43.42;;;8.90;94.20;;;;;;5030327;28;20387;-75
2023/02/21 03:35:47;;;;;;;87.63;43.92;;;8.80;96.00;;;;;;5030432;28;20390;-74
2023/02/21 03:38:13;;;;;;;87.25;41.28;;;9.00;94.00;;;;;;5030362;28;20414;-75
2023/02/21 03:40:38;;;;;;;87.90;43.93;;;8.90;93.70;;;;;;5030243;28;20868;-74
2023/02/21 03:43:08;;;;;;;95.90;43.73;;;8.90;95.00;;;;;;5030720;28;20469;-74
2023/02/21 03:45:35;;;;;;;92.63;44.85;;;9.10;92.50;;;;;;5030934;28;20481;-74
2023/02/21 03:48:01;;;;;;;98.57;43.83;;;8.90;93.30;;;;;;5030203;28;20449;-75
2023/02/21 03:50:27;;;;;;;90.70;44.53;;;8.90;95.20;;;;;;5031045;28;20547;-73
2023/02/21 03:52:53;;;;;;;96.70;44.50;;;8.90;95.60;;;;;;5028445;28;20481;-74
2023/02/21 03:55:18;;;;;;;90.30;44.25;;;8.90;95.20;;;;;;5030399;28;20437;-74
2023/02/21 03:57:44;;;;;;;96.10;44.22;;;8.90;95.00;;;;;;5032926;28;20395;-75
2023/02/21 04:00:11;;;;;;;89.63;42.95;;;9.00;94.30;;;;;;5034416;28;20402;-74
2023/02/21 04:02:37;;;;;;;89.93;44.67;;;9.00;94.30;;;;;;5034109;28;20387;-76
2023/02/21 04:05:03;;;;;;;88.35;43.28;;;9.00;94.20;;;;;;5034033;28;20731;-76
2023/02/21 04:07:28;;;;;;;89.90;43.00;;;8.80;96.30;;;;;;5034211;28;20415;-75
2023/02/21 04:09:54;;;;;;;92.55;45.00;;;8.90;94.70;;;;;;5034017;28;20540;-76
2023/02/21 04:12:19;;;;;;;87.43;41.80;;;8.90;95.80;;;;;;5033311;28;20380;-75
2023/02/21 04:14:45;;;;;;;82.10;41.42;;;8.90;96.20;;;;;;5033444;28;20402;-74
2023/02/21 04:17:11;;;;;;;73.53;40.20;;;9.00;96.90;;;;;;5033461;28;20444;-75
2023/02/21 04:19:36;;;;;;;81.25;42.10;;;9.00;93.90;;;;;;5033547;28;20383;-74
2023/02/21 04:22:02;;;;;;;75.20;40.28;;;8.90;95.30;;;;;;5032904;28;20399;-74
2023/02/21 04:24:27;;;;;;;81.88;40.97;;;8.90;96.40;;;;;;5033330;28;20429;-75
2023/02/21 04:26:53;;;;;;;75.05;39.63;;;8.90;97.10;;;;;;5033181;28;20391;-73
2023/02/21 04:29:19;;;;;;;76.95;42.05;;;8.90;96.50;;;;;;5031891;28;20456;-76
2023/02/21 04:31:44;;;;;;;78.47;41.20;;;8.90;95.80;;;;;;5033388;28;20398;-74
2023/02/21 04:34:10;;;;;;;73.28;40.20;;;8.90;95.00;;;;;;5032019;28;20385;-74
2023/02/21 04:36:37;;;;;;;76.15;39.90;;;8.90;97.00;;;;;;5033373;28;20395;-75
2023/02/21 04:39:03;;;;;;;75.60;40.28;;;8.90;96.90;;;;;;5033915;28;20391;-74
2023/02/21 04:41:29;;;;;;;82.53;40.30;;;8.90;97.00;;;;;;5033099;28;20425;-74
2023/02/21 04:43:54;;;;;;;80.40;42.42;;;8.90;97.10;;;;;;5033019;28;20418;-74
2023/02/21 04:46:20;;;;;;;76.40;40.55;;;8.80;97.50;;;;;;5032248;28;20387;-74
2023/02/21 04:48:48;;;;;;;73.53;39.67;;;9.00;95.90;;;;;;5031466;28;20403;-74
2023/02/21 04:51:17;;;;;;;85.20;41.75;;;8.90;95.50;;;;;;5035447;28;20788;-73
2023/02/21 04:53:45;;;;;;;81.80;40.67;;;8.80;96.80;;;;;;5041168;28;20382;-73
2023/02/21 04:56:11;;;;;;;77.45;41.10;;;8.90;97.20;;;;;;5044177;28;20387;-73
2023/02/21 04:58:37;;;;;;;79.35;41.17;;;8.90;97.70;;;;;;5033106;28;20894;-73
2023/02/21 05:01:03;;;;;;;75.60;39.97;;;8.80;97.70;;;;;;5032188;28;20391;-74
2023/02/21 05:03:29;;;;;;;76.87;39.60;;;8.90;96.70;;;;;;5032738;28;20461;-73
2023/02/21 05:05:54;;;;;;;76.00;39.50;;;9.00;94.60;;;;;;5031113;28;20854;-73
2023/02/21 05:08:20;;;;;;;79.07;41.20;;;9.00;94.30;;;;;;5031957;28;20412;-75
2023/02/21 05:10:45;;;;;;;84.63;42.27;;;9.00;93.70;;;;;;5032597;28;20399;-75
2023/02/21 05:13:13;;;;;;;78.47;41.73;;;8.90;94.80;;;;;;5032717;28;20827;-76
2023/02/21 05:15:38;;;;;;;79.90;40.92;;;8.90;95.00;;;;;;5034045;28;20695;-75
2023/02/21 05:18:04;;;;;;;83.70;42.03;;;8.90;95.60;;;;;;5036803;28;20391;-74
2023/02/21 05:20:29;;;;;;;84.90;41.53;;;8.80;97.50;;;;;;5038626;28;20387;-75
2023/02/21 05:22:55;;;;;;;82.80;40.30;;;9.00;96.30;;;;;;5035215;28;20494;-74
2023/02/21 05:25:22;;;;;;;83.17;41.43;;;9.00;94.50;;;;;;5031160;28;20467;-74
2023/02/21 05:27:49;;;;;;;82.30;40.17;;;8.90;94.90;;;;;;5034705;28;20403;-73
2023/02/21 05:30:16;;;;;;;84.90;41.55;;;8.90;95.50;;;;;;5035049;28;20391;-74
2023/02/21 05:32:42;;;;;;;89.82;42.67;;;8.90;95.90;;;;;;5033367;28;20782;-74
2023/02/21 05:35:09;;;;;;;77.88;40.10;;;8.90;96.60;;;;;;5032478;28;20411;-73
2023/02/21 05:37:35;;;;;;;90.22;43.40;;;8.90;95.00;;;;;;5032291;28;20422;-75
2023/02/21 05:40:01;;;;;;;93.17;43.30;;;8.90;95.90;;;;;;5032892;28;20815;-75
2023/02/21 05:42:26;;;;;;;88.00;43.87;;;8.90;95.70;;;;;;5032844;28;20383;-74
2023/02/21 05:44:52;;;;;;;93.73;44.67;;;8.90;97.10;;;;;;5032555;28;20469;-74
2023/02/21 05:47:18;;;;;;;86.90;43.60;;;8.90;96.80;;;;;;5033071;28;20449;-73
2023/02/21 05:49:44;;;;;;;88.75;43.80;;;8.90;95.80;;;;;;5033070;28;20486;-73
2023/02/21 05:52:12;;;;;;;87.28;43.47;;;8.90;98.00;;;;;;5031869;28;20547;-74
2023/02/21 05:54:38;;;;;;;89.60;43.33;;;8.90;96.90;;;;;;5032649;28;20411;-75
2023/02/21 05:57:03;;;;;;;92.18;44.95;;;8.90;95.80;;;;;;5031190;28;20390;-75
2023/02/21 05:59:29;;;;;;;91.03;42.88;;;8.90;96.10;;;;;;5032432;28;20391;-75
2023/02/21 06:01:55;;;;;;;91.78;44.33;;;9.00;94.80;;;;;;5031983;28;20518;-75
2023/02/21 06:04:21;;;;;;;87.53;43.47;;;8.90;95.60;;;;;;5032742;28;20510;-74
2023/02/21 06:06:47;;;;;;;96.78;45.83;;;8.80;97.50;;;;;;5032565;28;20395;-74
2023/02/21 06:09:12;;;;;;;103.17;45.40;;;8.80;97.80;;;;;;5030853;28;20926;-74
2023/02/21 06:11:39;;;;;;;98.70;46.22;;;8.80;98.40;;;;;;5032770;28;20435;-75
2023/02/21 06:14:08;;;;;;;102.43;46.00;;;8.80;99.40;;;;;;5033213;28;20391;-75
2023/02/21 06:16:35;;;;;;;87.28;43.63;;;8.80;99.90;;;;;;5034388;28;20375;-76
2023/02/21 06:19:02;;;;;;;79.60;39.03;;;8.80;99.30;;;;;;5033675;28;20383;-74
2023/02/21 06:21:27;;;;;;;73.20;37.05;;;8.90;95.60;;;;;;5033689;28;20756;-75
2023/02/21 06:23:53;;;;;;;70.83;35.10;;;9.00;94.20;;;;;;5034665;28;20404;-75
2023/02/21 06:26:19;;;;;;;69.23;35.10;;;8.90;95.20;;;;;;5034512;28;20394;-75
2023/02/21 06:28:45;;;;;;;68.50;35.50;;;8.90;95.40;;;;;;5030773;28;20564;-75
2023/02/21 06:31:11;;;;;;;78.13;36.42;;;8.80;97.00;;;;;;5031191;28;20419;-75
2023/02/21 06:33:37;;;;;;;68.82;33.88;;;8.90;97.20;;;;;;5031285;28;20391;-74
2023/02/21 06:36:15;;;;;;;65.50;32.67;;;8.80;97.90;;;;;;5029448;28;20775;-75
2023/02/21 06:38:47;;;;;;;69.18;35.28;;;8.80;99.10;;;;;;5030737;28;20419;-73
2023/02/21 06:41:15;;;;;;;75.03;37.05;;;8.80;99.50;;;;;;5030723;28;20401;-76
2023/02/21 06:43:40;;;;;;;77.32;37.38;;;8.70;99.90;;;;;;5031085;28;20437;-75
2023/02/21 06:46:06;;;;;;;90.93;40.10;;;8.70;99.90;;;;;;5031061;28;20880;-75
2023/02/21 06:48:31;;;;;;;87.70;39.15;;;8.60;99.90;;;;;;5030343;28;20405;-74
2023/02/21 06:50:57;;;;;;;99.50;42.75;;;8.70;99.90;;;;;;5030260;28;20466;-74
2023/02/21 06:53:22;;;;;;;106.78;44.20;;;8.70;99.90;;;;;;5030803;28;20419;-74
2023/02/21 06:55:48;;;;;;;109.97;44.97;;;8.60;99.90;;;;;;5030878;28;20398;-75
2023/02/21 06:58:13;;;;;;;110.18;48.28;;;8.60;99.90;;;;;;5031274;28;20383;-75
2023/02/21 07:00:39;;;;;;;109.00;47.55;;;8.60;99.90;;;;;;5030327;28;20430;-74
2023/02/21 07:03:05;;;;;;;117.40;45.95;;;8.60;99.90;;;;;;5031551;28;20387;-74
2023/02/21 07:05:33;;;;;;;105.43;44.85;;;8.70;99.90;;;;;;5029984;28;20487;-73
2023/02/21 07:08:00;;;;;;;117.72;48.72;;;8.70;99.90;;;;;;5030027;28;20407;-74
2023/02/21 07:10:26;;;;;;;101.15;42.53;;;8.70;99.90;;;;;;5030057;28;20797;-75
2023/02/21 07:12:51;;;;;;;99.43;43.00;;;8.80;99.90;;;;;;5029846;28;20379;-74
2023/02/21 07:15:17;;;;;;;131.67;63.23;;;8.70;99.90;;;;;;5030134;28;20483;-75
2023/02/21 07:17:42;;;;;;;117.33;53.10;;;8.60;99.90;;;;;;5030716;28;20509;-76
2023/02/21 07:20:08;;;;;;;102.63;47.40;;;8.80;99.90;;;;;;5030957;28;20422;-75
2023/02/21 07:22:34;;;;;;;94.50;41.60;;;8.80;99.90;;;;;;5030816;28;20402;-75
2023/02/21 07:25:00;;;;;;;91.77;42.90;;;8.70;99.90;;;;;;5033957;28;20856;-75
2023/02/21 07:27:25;;;;;;;88.67;39.70;;;8.60;99.90;;;;;;5038966;28;20386;-74
2023/02/21 07:29:51;;;;;;;86.17;39.73;;;8.60;99.90;;;;;;5036548;28;21003;-74
2023/02/21 07:32:16;;;;;;;74.87;35.73;;;8.70;99.90;;;;;;5034913;28;20441;-75
2023/02/21 07:34:43;;;;;;;63.13;31.63;;;8.70;99.90;;;;;;5035196;28;20383;-75
2023/02/21 07:37:08;;;;;;;67.00;34.38;;;8.70;99.90;;;;;;5034292;28;20415;-75
2023/02/21 07:39:34;;;;;;;82.20;36.60;;;8.70;99.90;;;;;;5034669;28;20422;-74
2023/02/21 07:42:00;;;;;;;95.15;40.20;;;8.70;99.90;;;;;;5034207;28;20398;-74
2023/02/21 07:44:25;;;;;;;95.70;39.40;;;8.60;99.90;;;;;;5034774;28;20405;-75
2023/02/21 07:46:51;;;;;;;87.30;37.30;;;8.60;99.90;;;;;;5034499;28;20391;-75
2023/02/21 07:49:17;;;;;;;85.43;36.87;;;8.60;99.90;;;;;;5033054;28;20492;-74
2023/02/21 07:51:42;;;;;;;80.30;36.20;;;8.60;99.90;;;;;;5034684;28;20384;-75
2023/02/21 07:54:08;;;;;;;84.53;36.30;;;8.60;99.90;;;;;;5033737;28;20436;-74
2023/02/21 07:56:33;;;;;;;78.28;34.80;;;8.60;99.90;;;;;;5033431;28;20432;-73
2023/02/21 07:58:59;;;;;;;85.07;36.42;;;8.60;99.90;;;;;;5034358;28;20395;-74
2023/02/21 08:01:26;;;;;;;84.57;36.28;;;8.60;99.90;;;;;;5033729;28;20390;-75
2023/02/21 08:03:51;;;;;;;86.20;37.10;;;8.60;99.90;;;;;;5034269;28;20887;-75
2023/02/21 08:06:17;;;;;;;74.75;34.78;;;8.60;99.90;;;;;;5034048;28;20478;-75
2023/02/21 08:08:44;;;;;;;74.35;33.58;;;8.60;99.90;;;;;;5033661;28;20409;-74
2023/02/21 08:11:09;;;;;;;86.30;35.00;;;8.60;99.90;;;;;;5033388;28;20470;-74
2023/02/21 08:13:35;;;;;;;73.60;33.77;;;8.70;99.90;;;;;;5033560;28;20466;-74
2023/02/21 08:16:01;;;;;;;68.72;32.30;;;8.80;99.90;;;;;;5033312;28;20445;-75
2023/02/21 08:18:27;;;;;;;67.25;31.05;;;8.90;99.90;;;;;;5033449;28;20387;-74
2023/02/21 08:20:54;;;;;;;64.80;30.23;;;8.80;99.90;;;;;;5032916;28;20510;-74
2023/02/21 08:23:20;;;;;;;64.07;30.45;;;8.80;99.90;;;;;;5031950;28;20391;-74
2023/02/21 08:25:46;;;;;;;64.00;30.23;;;8.80;99.90;;;;;;5033053;28;20486;-73
2023/02/21 08:28:12;;;;;;;63.15;29.73;;;8.80;99.90;;;;;;5033434;28;20537;-75
2023/02/21 08:30:38;;;;;;;57.92;27.70;;;8.80;99.90;;;;;;5033678;28;20390;-73
2023/02/21 08:33:03;;;;;;;64.20;28.38;;;8.80;99.90;;;;;;5032932;28;20384;-74
2023/02/21 08:35:29;;;;;;;57.20;27.27;;;8.80;99.90;;;;;;5033270;28;20383;-74
2023/02/21 08:38:01;;;;;;;58.55;28.17;;;8.80;99.90;;;;;;5033443;28;20805;-73
2023/02/21 08:40:29;;;;;;;53.00;25.60;;;8.80;99.90;;;;;;5032099;28;20395;-75
2023/02/21 08:42:56;;;;;;;55.08;27.60;;;8.90;99.50;;;;;;5032435;28;20462;-75
2023/02/21 08:45:23;;;;;;;60.78;27.98;;;8.80;99.90;;;;;;5033829;28;20552;-74
2023/02/21 08:47:49;;;;;;;63.30;27.65;;;8.90;98.80;;;;;;5032853;28;20387;-75
2023/02/21 08:50:15;;;;;;;63.20;26.80;;;8.90;98.50;;;;;;5031820;28;20471;-73
2023/02/21 08:52:40;;;;;;;61.22;28.77;;;8.90;99.50;;;;;;5032652;28;20390;-74
2023/02/21 08:55:06;;;;;;;58.22;27.38;;;9.00;98.90;;;;;;5033022;28;20886;-75
2023/02/21 08:57:33;;;;;;;57.33;27.52;;;9.10;95.90;;;;;;5033231;28;20390;-74
2023/02/21 08:59:59;;;;;;;56.97;27.60;;;9.10;93.90;;;;;;5032768;28;20383;-74
2023/02/21 09:02:25;;;;;;;54.15;26.80;;;9.20;91.00;;;;;;5032853;28;20437;-74
2023/02/21 09:04:51;;;;;;;59.05;26.15;;;9.10;91.50;;;;;;5032705;28;20387;-74
2023/02/21 09:07:19;;;;;;;52.50;23.92;;;9.00;93.50;;;;;;5032756;28;20383;-74
2023/02/21 09:09:45;;;;;;;53.20;24.67;;;9.00;92.50;;;;;;5032629;28;20992;-74
2023/02/21 09:12:12;;;;;;;53.53;25.17;;;9.00;94.30;;;;;;5032378;28;20469;-75
2023/02/21 09:14:39;;;;;;;51.40;24.50;;;9.00;95.90;;;;;;5032862;28;20725;-74
2023/02/21 09:17:06;;;;;;;45.93;24.33;;;9.20;92.50;;;;;;5033156;28;20784;-74
2023/02/21 09:19:32;;;;;;;49.88;23.15;;;9.30;92.60;;;;;;5035482;28;20872;-75
2023/02/21 09:21:58;;;;;;;48.80;24.10;;;9.50;88.10;;;;;;5040294;28;20401;-74
2023/02/21 09:24:25;;;;;;;48.08;24.15;;;9.50;86.40;;;;;;5040454;28;20394;-74
2023/02/21 09:26:57;;;;;;;48.30;23.03;;;9.60;84.30;;;;;;5033498;28;20767;-74
2023/02/21 09:29:26;;;;;;;44.47;22.83;;;9.60;85.20;;;;;;5032206;28;20402;-75
2023/02/21 09:31:52;;;;;;;49.97;24.00;;;9.60;82.10;;;;;;5031904;28;20498;-74
2023/02/21 09:34:18;;;;;;;54.08;25.40;;;9.50;83.70;;;;;;5030775;28;20473;-73
2023/02/21 09:36:46;;;;;;;55.20;26.05;;;9.60;84.00;;;;;;5032298;28;20457;-74
2023/02/21 09:39:12;;;;;;;54.63;26.73;;;9.60;82.30;;;;;;5032301;28;20573;-74
2023/02/21 09:41:38;;;;;;;55.03;27.67;;;9.70;81.60;;;;;;5030571;28;20482;-75
2023/02/21 09:44:05;;;;;;;46.23;24.30;;;9.60;82.60;;;;;;5032332;28;20542;-74
2023/02/21 09:46:45;;;;;;;53.95;26.70;;;9.50;84.80;;;;;;5032412;28;20383;-73
2023/02/21 09:49:19;;;;;;;61.42;28.00;;;9.50;86.00;;;;;;5032328;28;20809;-74
2023/02/21 09:51:46;;;;;;;54.00;27.20;;;9.50;87.00;;;;;;5033348;28;20419;-75
2023/02/21 09:54:21;;;;;;;54.92;26.98;;;9.50;87.00;;;;;;5033558;28;20402;-74
2023/02/21 09:56:47;;;;;;;56.50;26.73;;;9.60;87.10;;;;;;5050596;28;20375;-74
2023/02/21 09:59:14;;;;;;;58.27;28.13;;;9.70;84.60;;;;;;5045895;28;20396;-72
2023/02/21 10:01:55;;;;;;;58.78;27.55;;;9.60;84.40;;;;;;5037505;28;20390;-75
2023/02/21 10:04:29;;;;;;;57.85;27.73;;;9.70;84.90;;;;;;5038665;28;20415;-74
2023/02/21 10:07:05;;;;;;;55.10;27.60;;;9.70;85.10;;;;;;5036729;28;20484;-74
2023/02/21 10:09:58;;;;;;;62.42;27.15;;;9.60;86.40;;;;;;5035842;28;20453;-74
2023/02/21 10:12:30;;;;;;;54.85;26.25;;;9.60;86.80;;;;;;5035825;28;20482;-74
2023/02/21 10:15:29;;;;;;;58.00;28.20;;;9.60;87.40;;;;;;5034771;28;20757;-75
2023/02/21 10:18:06;;;;;;;51.45;26.70;;;9.70;85.70;;;;;;5034038;28;20407;-74
2023/02/21 10:20:50;;;;;;;47.30;25.85;;;9.90;81.80;;;;;;5034354;28;20383;-75
2023/02/21 10:23:38;;;;;;;44.00;23.20;;;10.00;81.30;;;;;;5035461;28;20834;-75
2023/02/21 10:26:10;;;;;;;42.17;22.90;;;10.20;76.90;;;;;;5035060;28;20387;-75
2023/02/21 10:28:37;;;;;;;45.23;23.90;;;10.30;77.60;;;;;;5033817;28;20406;-75
2023/02/21 10:31:13;;;;;;;42.50;22.38;;;10.30;74.90;;;;;;5034135;28;20398;-75
2023/02/21 10:33:39;;;;;;;38.58;20.92;;;10.40;73.40;;;;;;5033597;28;20379;-75
2023/02/21 10:36:18;;;;;;;42.75;22.67;;;10.30;74.30;;;;;;5033850;28;20469;-74
2023/02/21 10:39:02;;;;;;;47.78;24.67;;;10.10;76.50;;;;;;5033144;28;20383;-75
2023/02/21 10:41:30;;;;;;;48.13;25.02;;;10.10;78.20;;;;;;5032249;28;20756;-74
2023/02/21 10:44:04;;;;;;;55.38;29.10;;;10.00;79.20;;;;;;5032013;28;20756;-74
2023/02/21 10:46:46;;;;;;;56.95;28.17;;;10.10;80.70;;;;;;5032794;28;20399;-75
2023/02/21 10:49:22;;;;;;;54.08;29.38;;;10.00;80.30;;;;;;5031732;28;20460;-75
2023/02/21 10:52:04;;;;;;;57.08;30.08;;;10.10;80.80;;;;;;5031405;28;20391;-74
2023/02/21 10:54:30;;;;;;;57.80;30.47;;;10.00;81.60;;;;;;5031868;28;20382;-74
2023/02/21 10:56:56;;;;;;;52.67;28.63;;;10.10;80.10;;;;;;5031741;28;20797;-75
2023/02/21 10:59:30;;;;;;;61.07;27.80;;;10.20;77.10;;;;;;5031037;28;20386;-72
2023/02/21 11:01:57;;;;;;;53.87;27.57;;;10.20;79.40;;;;;;5030483;28;20460;-74
2023/02/21 11:04:34;;;;;;;52.10;27.63;;;10.30;78.90;;;;;;5030920;28;20391;-75
2023/02/21 11:07:08;;;;;;;46.30;26.27;;;10.50;76.80;;;;;;5030564;28;20470;-76
2023/02/21 11:09:39;;;;;;;53.43;27.80;;;10.40;77.10;;;;;;5030542;28;20406;-74
2023/02/21 11:12:24;;;;;;;41.97;22.90;;;10.40;76.40;;;;;;5030216;28;20465;-74
2023/02/21 11:14:52;;;;;;;41.47;22.73;;;10.50;74.20;;;;;;5030494;28;20868;-75
2023/02/21 11:17:23;;;;;;;40.38;22.38;;;10.60;71.00;;;;;;5030668;28;20841;-74
2023/02/21 11:20:16;;;;;;;42.30;23.75;;;10.60;71.10;;;;;;5030690;28;20433;-74
2023/02/21 11:22:48;;;;;;;45.60;23.50;;;10.40;73.20;;;;;;5023891;28;20410;-74
2023/02/21 11:25:37;;;;;;;47.33;25.98;;;10.40;75.10;;;;;;5030420;28;20459;-74
2023/02/21 11:28:18;;;;;;;44.67;24.92;;;10.30;74.50;;;;;;5030318;28;20395;-75
2023/02/21 11:31:07;;;;;;;45.67;24.80;;;10.30;74.60;;;;;;5030988;28;20375;-74
2023/02/21 11:33:38;;;;;;;50.25;24.55;;;10.30;74.20;;;;;;5031756;28;20381;-74
2023/02/21 11:36:13;;;;;;;49.85;26.00;;;10.30;76.70;;;;;;5030784;28;20403;-74
2023/02/21 11:38:43;;;;;;;46.67;24.80;;;10.30;76.70;;;;;;5030489;28;20871;-74
2023/02/21 11:41:33;;;;;;;42.85;23.30;;;10.50;73.20;;;;;;5030234;28;20387;-74
2023/02/21 11:43:59;;;;;;;44.38;23.38;;;10.40;72.60;;;;;;5030552;28;20868;-75
2023/02/21 11:46:34;;;;;;;49.03;25.30;;;10.30;74.30;;;;;;5030487;28;20405;-74
2023/02/21 11:49:14;;;;;;;50.85;24.92;;;10.60;72.80;;;;;;5029929;28;20486;-74
2023/02/21 11:51:48;;;;;;;48.03;25.10;;;10.60;72.30;;;;;;5030304;28;20379;-74
2023/02/21 11:54:14;;;;;;;52.65;24.10;;;10.60;72.80;;;;;;5030123;28;20383;-74
2023/02/21 11:56:55;;;;;;;48.90;23.75;;;10.60;72.60;;;;;;5030738;28;20933;-75
2023/02/21 11:59:44;;;;;;;47.55;25.30;;;10.60;71.20;;;;;;5029487;28;20481;-75
2023/02/21 12:02:29;;;;;;;46.60;24.60;;;10.50;72.40;;;;;;5030523;28;20383;-75
2023/02/21 12:05:22;;;;;;;48.15;23.52;;;10.50;73.30;;;;;;5030916;28;20431;-75
2023/02/21 12:08:16;;;;;;;46.88;24.17;;;10.40;73.30;;;;;;5031256;28;20386;-74
2023/02/21 12:11:17;;;;;;;46.70;23.42;;;10.60;72.60;;;;;;5032421;28;20383;-74
2023/02/21 12:13:58;;;;;;;45.37;23.27;;;10.70;70.90;;;;;;5031623;28;20921;-75
2023/02/21 12:16:42;;;;;;;48.50;24.25;;;10.80;69.80;;;;;;5029325;28;20391;-74
2023/02/21 12:19:07;;;;;;;52.08;25.30;;;10.80;68.40;;;;;;5032628;28;20749;-76
2023/02/21 12:21:56;;;;;;;49.42;23.15;;;10.80;68.40;;;;;;5033624;28;20441;-75
2023/02/21 12:24:54;;;;;;;46.33;22.50;;;10.60;69.50;;;;;;5033913;28;20429;-76
2023/02/21 12:27:52;;;;;;;45.63;22.17;;;10.50;70.20;;;;;;5034402;28;20725;-75
2023/02/21 12:30:29;;;;;;;45.72;22.75;;;10.40;70.80;;;;;;5034646;28;20391;-76
2023/02/21 12:33:33;;;;;;;44.00;21.40;;;10.50;70.20;;;;;;5049780;28;20472;-76
2023/02/21 12:36:34;;;;;;;41.35;21.05;;;10.60;69.40;;;;;;5004129;28;20387;-77
2023/02/21 12:39:30;;;;;;;47.95;24.13;;;10.50;69.50;;;;;;5034288;28;20407;-74
2023/02/21 12:42:07;;;;;;;47.05;23.85;;;10.30;70.60;;;;;;5033334;28;20387;-75
2023/02/21 12:44:52;;;;;;;40.90;20.88;;;10.30;72.20;;;;;;5033774;28;20941;-75
2023/02/21 12:47:32;;;;;;;40.33;21.00;;;10.30;73.40;;;;;;5033401;28;20799;-75
2023/02/21 12:50:24;;;;;;;40.15;20.90;;;10.40;71.30;;;;;;5033026;28;20403;-74
2023/02/21 12:53:03;;;;;;;43.33;21.67;;;10.40;69.80;;;;;;5033161;28;20429;-74
2023/02/21 12:55:40;;;;;;;40.58;21.13;;;10.40;71.30;;;;;;5033261;28;20371;-75
2023/02/21 12:58:26;;;;;;;38.75;19.83;;;10.40;72.30;;;;;;5033331;28;20717;-76
2023/02/21 13:00:57;;;;;;;40.67;19.83;;;10.90;66.60;;;;;;5019948;28;20458;-73
2023/02/21 13:03:55;;;;;;;39.85;20.08;;;10.90;65.40;;;;;;5020329;28;20397;-73
2023/02/21 13:06:27;;;;;;;42.30;20.80;;;11.00;63.20;;;;;;5020614;28;20399;-73
2023/02/21 13:09:04;;;;;;;43.95;21.27;;;10.80;65.10;;;;;;5013228;28;20902;-73
2023/02/21 13:11:43;;;;;;;42.55;21.00;;;10.50;68.70;;;;;;5013108;28;20472;-75
2023/02/21 13:14:19;;;;;;;52.22;25.80;;;10.40;72.30;;;;;;5013778;28;20498;-74
2023/02/21 13:16:45;;;;;;;56.97;27.17;;;10.40;73.30;;;;;;5020128;28;20900;-75
2023/02/21 13:19:12;;;;;;;54.33;26.40;;;10.50;72.60;;;;;;5031744;28;20389;-73
2023/02/21 13:22:00;;;;;;;38.15;20.50;;;10.50;72.20;;;;;;5022516;28;20413;-73
2023/02/21 13:24:52;;;;;;;32.63;18.88;;;10.50;69.60;;;;;;5015622;28;20385;-74
2023/02/21 13:27:33;;;;;;;33.42;17.80;;;10.50;69.40;;;;;;5036495;28;20474;-78
2023/02/21 13:30:31;;;;;;;31.60;17.70;;;10.70;68.10;;;;;;5035663;28;20482;-76
2023/02/21 13:32:59;;;;;;;49.85;24.95;;;10.90;65.50;;;;;;5048710;28;20387;-77
2023/02/21 13:35:37;;;;;;;51.15;26.48;;;10.90;66.30;;;;;;5048570;28;20391;-78
2023/02/21 13:38:09;;;;;;;49.97;25.52;;;10.80;67.60;;;;;;5046805;28;20460;-78
2023/02/21 13:40:53;;;;;;;33.63;18.45;;;10.80;68.10;;;;;;5043403;28;20445;-77
2023/02/21 13:43:29;;;;;;;35.75;18.75;;;10.80;68.30;;;;;;5040777;28;20804;-77
2023/02/21 13:46:41;;;;;;;36.20;17.70;;;11.20;62.10;;;;;;5034260;28;20395;-76
2023/02/21 13:49:38;;;;;;;39.30;19.85;;;11.20;61.60;;;;;;5012100;28;20507;-78
2023/02/21 13:52:27;;;;;;;40.67;20.85;;;10.90;64.90;;;;;;5034745;28;20860;-78
2023/02/21 13:55:12;;;;;;;38.97;20.35;;;10.80;66.20;;;;;;5034666;28;20751;-78
2023/02/21 13:57:43;;;;;;;39.58;20.85;;;10.90;64.70;;;;;;5032284;28;20447;-76
2023/02/21 14:00:29;;;;;;;39.10;20.65;;;10.90;64.40;;;;;;5033822;28;20380;-78
2023/02/21 14:03:08;;;;;;;35.22;19.23;;;10.90;64.00;;;;;;5023660;28;20395;-78
2023/02/21 14:05:43;;;;;;;41.53;21.08;;;11.40;60.70;;;;;;5031664;28;20482;-81
2023/02/21 14:08:14;;;;;;;40.55;20.30;;;11.20;60.60;;;;;;5034077;28;20410;-79
2023/02/21 14:10:47;;;;;;;38.88;20.08;;;11.10;62.20;;;;;;5022599;28;20389;-77
2023/02/21 14:13:48;;;;;;;43.33;21.60;;;10.90;64.90;;;;;;5034137;28;20406;-78
2023/02/21 14:16:23;;;;;;;44.10;21.88;;;10.70;66.00;;;;;;5039032;28;20477;-76
2023/02/21 14:18:55;;;;;;;38.10;20.93;;;10.80;67.00;;;;;;5036165;28;20818;-79
2023/02/21 14:21:24;;;;;;;35.03;20.05;;;10.70;67.70;;;;;;5035861;28;20760;-77
2023/02/21 14:23:58;;;;;;;44.27;20.30;;;10.70;67.30;;;;;;5038797;28;20437;-77
2023/02/21 14:26:48;;;;;;;42.45;19.65;;;10.80;66.20;;;;;;5041382;28;20425;-78
2023/02/21 14:29:37;;;;;;;42.15;20.90;;;10.80;64.70;;;;;;5025506;28;20418;-77
2023/02/21 14:32:02;;;;;;;37.88;21.20;;;10.80;65.40;;;;;;5019634;28;20901;-76
2023/02/21 14:34:39;;;;;;;34.10;18.97;;;10.80;66.00;;;;;;5017841;28;20400;-78
2023/02/21 14:37:26;;;;;;;37.33;19.92;;;10.90;64.10;;;;;;5029206;28;20408;-78
2023/02/21 14:39:56;;;;;;;38.25;20.20;;;10.90;63.70;;;;;;5013621;28;20468;-78
2023/02/21 14:42:22;;;;;;;41.67;20.90;;;10.90;63.70;;;;;;5013052;28;20391;-79
2023/02/21 14:45:10;;;;;;;37.00;20.30;;;10.80;65.10;;;;;;5018732;28;20448;-77
2023/02/21 14:47:48;;;;;;;37.90;19.75;;;10.80;65.20;;;;;;5041556;28;20395;-79
2023/02/21 14:50:53;;;;;;;39.03;20.10;;;10.80;65.30;;;;;;5036034;28;20391;-77
2023/02/21 14:53:45;;;;;;;33.60;19.35;;;10.90;64.40;;;;;;5031548;28;20410;-76
2023/02/21 14:56:38;;;;;;;38.80;20.80;;;10.80;64.80;;;;;;5030013;28;20405;-77
2023/02/21 14:59:24;;;;;;;40.40;21.35;;;10.80;65.20;;;;;;5023645;28;20804;-78
2023/02/21 15:02:14;;;;;;;39.08;20.25;;;10.70;66.70;;;;;;5028587;28;20403;-78
2023/02/21 15:04:53;;;;;;;40.75;20.40;;;10.60;65.80;;;;;;5034180;28;20399;-77
2023/02/21 15:07:56;;;;;;;41.35;22.10;;;10.60;66.20;;;;;;5034530;28;20445;-77
2023/02/21 15:10:23;;;;;;;44.75;22.50;;;10.60;65.30;;;;;;5029166;28;20411;-77
2023/02/21 15:12:55;;;;;;;39.15;21.42;;;10.60;65.20;;;;;;5012775;28;20479;-77
2023/02/21 15:15:27;;;;;;;45.05;22.25;;;10.60;65.70;;;;;;5028858;28;20407;-77
2023/02/21 15:18:05;;;;;;;38.10;20.98;;;10.50;66.70;;;;;;5035787;28;20455;-77